Time;durP1;ratioP1;P1;durP2;ratioP2;P2;SDS_P1;SDS_P2;PMS_P1;PMS_P2;Temp;Humidity;BMP_temperature;BMP_pressure;BME280_temperature;BME280_humidity;BME280_pressure;Samples;Min_cycle;Max_cycle;Signal;HPM_P1;HPM_P2
2022/01/22 00:02:06;;;;;;;17.42;2.47;;;6.90;99.90;;;;;;4771601;30;20134;-86
2022/01/22 00:04:32;;;;;;;23.10;2.63;;;7.10;99.90;;;;;;4754809;30;20152;-85
2022/01/22 00:06:58;;;;;;;24.70;3.03;;;7.00;99.90;;;;;;4771411;29;20097;-85
2022/01/22 00:09:27;;;;;;;16.17;2.20;;;7.00;99.90;;;;;;4783483;30;20047;-88
2022/01/22 00:11:54;;;;;;;20.25;3.00;;;7.00;99.90;;;;;;4788907;29;20051;-87
2022/01/22 00:14:23;;;;;;;21.35;2.45;;;7.00;99.90;;;;;;4787569;30;20062;-87
2022/01/22 00:16:49;;;;;;;24.13;2.85;;;7.00;99.90;;;;;;4772670;30;20096;-87
2022/01/22 00:19:14;;;;;;;32.38;2.83;;;7.00;99.90;;;;;;4772577;30;20063;-87
2022/01/22 00:21:40;;;;;;;21.15;2.72;;;7.10;99.90;;;;;;4772322;30;20059;-87
2022/01/22 00:24:09;;;;;;;21.63;2.58;;;7.00;99.90;;;;;;4787396;30;20043;-87
2022/01/22 00:26:35;;;;;;;27.58;3.17;;;7.10;99.90;;;;;;4772745;30;20449;-87
2022/01/22 00:29:00;;;;;;;20.73;2.78;;;7.00;99.90;;;;;;4772818;30;20047;-88
2022/01/22 00:31:26;;;;;;;21.05;2.72;;;7.10;99.90;;;;;;4772884;30;20054;-87
2022/01/22 00:33:52;;;;;;;25.35;3.00;;;7.10;99.90;;;;;;4787530;30;20062;-88
2022/01/22 00:36:17;;;;;;;27.60;2.72;;;7.00;99.90;;;;;;4772288;30;20047;-87
2022/01/22 00:38:43;;;;;;;21.30;2.60;;;7.00;99.90;;;;;;4757340;30;20144;-87
2022/01/22 00:41:09;;;;;;;22.48;2.42;;;7.10;99.90;;;;;;4772553;30;20051;-87
2022/01/22 00:43:35;;;;;;;27.23;2.65;;;7.10;99.90;;;;;;4786903;30;20047;-87
2022/01/22 00:46:00;;;;;;;24.10;2.47;;;7.10;99.90;;;;;;4772495;30;20062;-87
2022/01/22 00:48:26;;;;;;;26.75;2.78;;;7.00;99.90;;;;;;4786988;30;20464;-88
2022/01/22 00:50:55;;;;;;;22.33;2.85;;;7.00;99.90;;;;;;4757270;30;20063;-88
2022/01/22 00:53:21;;;;;;;17.75;2.33;;;7.10;99.90;;;;;;4772611;30;20340;-87
2022/01/22 00:55:46;;;;;;;16.25;2.00;;;7.00;99.90;;;;;;4771797;30;20505;-87
2022/01/22 00:58:12;;;;;;;15.70;2.13;;;7.10;99.90;;;;;;4772212;30;20074;-87
2022/01/22 01:00:37;;;;;;;19.48;2.67;;;7.10;99.90;;;;;;4786616;30;20059;-87
2022/01/22 01:03:03;;;;;;;19.40;2.40;;;7.10;99.90;;;;;;4772162;30;20086;-87
2022/01/22 01:05:29;;;;;;;21.27;2.10;;;7.20;99.90;;;;;;4757232;30;20039;-88
2022/01/22 01:07:54;;;;;;;18.02;2.10;;;7.10;99.90;;;;;;4786540;30;20100;-88
2022/01/22 01:10:21;;;;;;;21.13;2.13;;;7.00;99.90;;;;;;4771038;30;20090;-87
2022/01/22 01:12:47;;;;;;;13.88;2.28;;;7.10;99.90;;;;;;4770161;30;20150;-87
2022/01/22 01:33:59;;;;;;;15.30;2.22;;;7.10;99.90;;;;;;4774094;29;20060;-88
2022/01/22 01:36:24;;;;;;;14.82;2.38;;;7.10;99.90;;;;;;4772141;30;20387;-87
2022/01/22 01:38:55;;;;;;;19.13;3.03;;;7.10;99.90;;;;;;4777513;30;20089;-87
2022/01/22 01:41:47;;;;;;;15.18;2.33;;;7.10;99.90;;;;;;4767809;30;20562;-87
2022/01/22 01:44:12;;;;;;;18.67;2.20;;;7.00;99.90;;;;;;4755960;30;20070;-88
2022/01/22 01:46:45;;;;;;;17.42;1.80;;;7.20;99.90;;;;;;4752296;30;20131;-87
2022/01/22 01:49:12;;;;;;;17.20;2.30;;;7.20;99.90;;;;;;4737762;30;20064;-87
2022/01/22 01:51:37;;;;;;;13.73;2.20;;;7.10;99.90;;;;;;4781549;30;20063;-87
2022/01/22 01:54:27;;;;;;;13.45;1.98;;;7.20;99.90;;;;;;4756691;30;20074;-87
2022/01/22 01:59:36;;;;;;;11.05;1.52;;;7.20;99.90;;;;;;4786166;30;20070;-87
2022/01/22 02:02:03;;;;;;;14.05;2.08;;;7.10;99.90;;;;;;4767616;30;20043;-87
2022/01/22 02:04:29;;;;;;;7.95;1.48;;;7.30;99.90;;;;;;4738823;30;20423;-87
2022/01/22 02:06:55;;;;;;;6.45;1.30;;;7.20;99.90;;;;;;4767952;30;20051;-87
2022/01/22 02:09:21;;;;;;;13.43;1.40;;;7.20;99.90;;;;;;4753551;30;20496;-87
2022/01/22 02:11:55;;;;;;;9.98;1.55;;;7.20;99.90;;;;;;4753164;30;20117;-87
2022/01/22 02:25:19;;;;;;;7.35;1.10;;;7.20;99.90;;;;;;4770352;30;20059;-87
2022/01/22 02:27:44;;;;;;;11.70;1.33;;;7.20;99.90;;;;;;4768452;30;20139;-87
2022/01/22 02:30:18;;;;;;;8.40;1.40;;;7.20;99.90;;;;;;4767615;30;20048;-87
2022/01/22 02:33:07;;;;;;;9.40;1.30;;;7.10;99.90;;;;;;4756218;30;20062;-87
2022/01/22 02:35:45;;;;;;;5.60;1.20;;;7.20;99.90;;;;;;4771170;30;20058;-87
2022/01/22 02:38:17;;;;;;;7.60;1.40;;;7.10;99.90;;;;;;4758339;30;20491;-87
2022/01/22 02:40:47;;;;;;;11.55;1.63;;;7.10;99.90;;;;;;4771266;30;20059;-87
2022/01/22 02:43:13;;;;;;;8.77;1.45;;;7.20;99.90;;;;;;4771367;30;20103;-87
2022/01/22 02:45:40;;;;;;;7.95;1.27;;;7.10;99.90;;;;;;4756256;30;20105;-87
2022/01/22 02:48:05;;;;;;;7.68;1.10;;;7.10;99.90;;;;;;4741096;30;20062;-87
2022/01/22 02:50:31;;;;;;;6.20;1.05;;;7.10;99.90;;;;;;4771831;30;20055;-87
2022/01/22 02:53:01;;;;;;;9.45;1.38;;;7.10;99.90;;;;;;4770708;30;20075;-87
2022/01/22 02:55:27;;;;;;;9.27;1.20;;;7.20;99.90;;;;;;4756237;30;20047;-87
2022/01/22 02:57:53;;;;;;;7.28;1.60;;;7.20;99.90;;;;;;4770696;30;20454;-87
2022/01/22 03:00:22;;;;;;;6.55;1.10;;;7.30;99.90;;;;;;4741568;30;20060;-88
2022/01/22 03:02:48;;;;;;;7.93;1.50;;;7.10;99.90;;;;;;4770408;30;20099;-87
2022/01/22 03:05:14;;;;;;;11.43;1.50;;;7.10;99.90;;;;;;4741295;30;20056;-88
2022/01/22 03:07:41;;;;;;;6.70;1.20;;;7.20;99.90;;;;;;4756059;30;20462;-87
2022/01/22 03:10:08;;;;;;;6.40;1.20;;;7.20;99.90;;;;;;4770317;30;20059;-87
2022/01/22 03:17:54;;;;;;;6.00;1.40;;;7.20;99.90;;;;;;4785955;30;20066;-87
2022/01/22 03:27:59;;;;;;;4.78;1.42;;;7.10;99.90;;;;;;4785001;30;20479;-87
2022/01/22 03:30:25;;;;;;;5.97;1.17;;;7.00;99.90;;;;;;4740978;30;20056;-87
2022/01/22 03:32:53;;;;;;;6.38;1.13;;;7.20;99.90;;;;;;4770199;30;20402;-87
2022/01/22 03:37:45;;;;;;;6.82;1.42;;;7.20;99.90;;;;;;4770293;30;20052;-87
2022/01/22 03:40:12;;;;;;;8.10;1.20;;;7.10;99.90;;;;;;4740330;30;20406;-87
2022/01/22 03:42:39;;;;;;;7.68;1.30;;;7.10;99.90;;;;;;4769934;30;20078;-87
2022/01/22 03:45:06;;;;;;;6.07;1.48;;;7.10;99.90;;;;;;4754968;30;20055;-88
2022/01/22 03:47:32;;;;;;;10.35;1.10;;;7.10;99.90;;;;;;4740951;30;20055;-88
2022/01/22 03:49:57;;;;;;;6.65;1.13;;;7.20;99.90;;;;;;4739196;30;20146;-88
2022/01/22 03:52:23;;;;;;;4.25;1.00;;;7.10;99.90;;;;;;4754902;30;20056;-88
2022/01/22 03:54:49;;;;;;;6.35;1.20;;;7.10;99.90;;;;;;4769626;30;20091;-88
2022/01/22 03:57:14;;;;;;;6.18;1.20;;;7.10;99.90;;;;;;4768672;30;20400;-88
2022/01/22 03:59:40;;;;;;;9.45;1.38;;;7.20;99.90;;;;;;4740254;30;20087;-87
2022/01/22 04:02:39;;;;;;;9.23;1.25;;;7.10;99.90;;;;;;4770807;30;20067;-88
2022/01/22 04:04:58;;;;;;;5.15;1.30;;;7.10;99.90;;;;;;4774614;29;20060;-87
2022/01/22 04:09:53;;;;;;;8.32;1.20;;;7.00;99.90;;;;;;4754563;30;20056;-87
2022/01/22 04:12:25;;;;;;;7.15;1.10;;;7.00;99.90;;;;;;4768999;30;20052;-87
2022/01/22 04:14:59;;;;;;;6.45;1.27;;;7.00;99.90;;;;;;4740707;30;20059;-87
2022/01/22 04:24:49;;;;;;;7.45;1.33;;;7.10;99.90;;;;;;4756166;30;20056;-88
2022/01/22 04:25:44;;;;;;;5.43;1.30;;;7.00;99.90;;;;;;4774520;30;20521;-88
2022/01/22 04:28:10;;;;;;;11.57;1.50;;;7.00;99.90;;;;;;4786805;30;20512;-88
2022/01/22 04:30:35;;;;;;;7.65;1.90;;;7.10;99.90;;;;;;4787621;30;20097;-87
2022/01/22 04:33:04;;;;;;;6.22;1.50;;;7.00;99.90;;;;;;4761105;30;20105;-88
2022/01/22 04:35:30;;;;;;;9.65;1.40;;;7.10;99.90;;;;;;4740270;30;20060;-87
2022/01/22 04:37:55;;;;;;;13.32;1.67;;;7.00;99.90;;;;;;4754524;30;20051;-87
2022/01/22 04:40:21;;;;;;;6.45;1.27;;;7.00;99.90;;;;;;4724408;30;20058;-87
2022/01/22 04:42:47;;;;;;;10.38;2.20;;;7.00;99.90;;;;;;4754572;30;20146;-87
2022/01/22 04:56:17;;;;;;;8.38;1.45;;;7.00;99.90;;;;;;4770740;30;20109;-87
2022/01/22 04:58:42;;;;;;;6.32;1.20;;;7.00;99.90;;;;;;4754029;30;20048;-87
2022/01/22 05:01:08;;;;;;;7.10;1.15;;;7.10;99.90;;;;;;4753674;30;20058;-87
2022/01/22 05:03:33;;;;;;;5.78;1.13;;;7.20;99.90;;;;;;4769037;30;20054;-87
2022/01/22 05:06:00;;;;;;;5.30;1.00;;;7.10;99.90;;;;;;4768600;30;20449;-87
2022/01/22 05:08:26;;;;;;;3.60;0.90;;;7.20;99.90;;;;;;4754027;30;20407;-87
2022/01/22 05:10:51;;;;;;;8.10;0.98;;;7.10;99.90;;;;;;4753521;30;20051;-87
2022/01/22 05:13:17;;;;;;;6.32;0.90;;;7.20;99.90;;;;;;4738875;30;20060;-87
2022/01/22 05:15:43;;;;;;;3.17;1.00;;;7.00;99.90;;;;;;4768694;30;20059;-88
2022/01/22 05:18:09;;;;;;;3.60;1.00;;;7.10;99.90;;;;;;4768561;30;20105;-87
2022/01/22 05:20:44;;;;;;;6.45;1.20;;;7.10;99.90;;;;;;4768739;30;20056;-87
2022/01/22 05:23:17;;;;;;;7.72;1.30;;;7.10;99.90;;;;;;4755123;30;20060;-87
2022/01/22 05:25:56;;;;;;;5.35;1.30;;;7.10;99.90;;;;;;4754525;30;20123;-87
2022/01/22 05:39:11;;;;;;;7.25;1.70;;;7.00;99.90;;;;;;4767133;30;20097;-87
2022/01/22 05:41:40;;;;;;;9.75;1.60;;;7.00;99.90;;;;;;4754158;30;20094;-88
2022/01/22 05:44:06;;;;;;;8.23;1.38;;;7.10;99.90;;;;;;4768244;30;20095;-88
2022/01/22 05:46:31;;;;;;;7.75;1.25;;;7.00;99.90;;;;;;4766320;30;20052;-87
2022/01/22 05:48:57;;;;;;;7.90;1.20;;;7.00;99.90;;;;;;4754107;30;20121;-87
2022/01/22 05:51:23;;;;;;;6.70;1.52;;;7.00;99.90;;;;;;4785646;29;20120;-87
2022/01/22 06:01:44;;;;;;;5.55;1.50;;;6.80;99.90;;;;;;4761180;30;20466;-87
2022/01/22 06:04:10;;;;;;;7.90;1.38;;;6.90;99.90;;;;;;4785743;30;20090;-86
2022/01/22 06:06:36;;;;;;;6.28;1.45;;;6.90;99.90;;;;;;4785743;30;20061;-87
2022/01/22 06:09:07;;;;;;;9.77;1.48;;;6.80;99.90;;;;;;4785692;30;20142;-87
2022/01/22 06:11:40;;;;;;;6.90;1.48;;;6.80;99.90;;;;;;4785752;30;20211;-88
2022/01/22 06:14:06;;;;;;;5.57;1.30;;;6.90;99.90;;;;;;4771713;30;20062;-87
2022/01/22 06:16:31;;;;;;;7.30;1.20;;;7.00;99.90;;;;;;4786490;29;20138;-87
2022/01/22 06:18:57;;;;;;;8.30;1.60;;;7.00;99.90;;;;;;4787087;29;20098;-87
2022/01/22 06:21:23;;;;;;;11.98;1.55;;;7.00;99.90;;;;;;4770734;30;20474;-87
2022/01/22 06:23:48;;;;;;;8.23;1.40;;;6.90;99.90;;;;;;4785741;30;20134;-87
2022/01/22 06:26:14;;;;;;;10.00;1.73;;;6.90;99.90;;;;;;4785214;30;20150;-86
2022/01/22 06:28:41;;;;;;;9.40;1.60;;;7.00;99.90;;;;;;4770608;30;20061;-87
2022/01/22 06:31:07;;;;;;;6.10;1.20;;;6.90;99.90;;;;;;4770931;30;20108;-88
2022/01/22 06:33:33;;;;;;;4.88;1.40;;;7.00;99.90;;;;;;4770451;30;20047;-88
2022/01/22 06:35:59;;;;;;;5.97;1.50;;;7.10;99.90;;;;;;4755773;30;20501;-88
2022/01/22 06:38:24;;;;;;;5.85;1.50;;;7.00;99.90;;;;;;4781860;30;20108;-87
2022/01/22 06:43:34;;;;;;;7.60;1.50;;;7.00;99.90;;;;;;4766979;30;20099;-87
2022/01/22 06:45:59;;;;;;;6.97;1.98;;;7.00;99.90;;;;;;4752808;30;20055;-87
2022/01/22 06:48:25;;;;;;;8.18;2.00;;;7.00;99.90;;;;;;4766769;30;20066;-88
2022/01/22 06:50:52;;;;;;;6.43;1.45;;;6.90;99.90;;;;;;4782417;30;20138;-87
2022/01/22 06:53:18;;;;;;;5.55;1.42;;;7.00;99.90;;;;;;4781631;30;20500;-88
2022/01/22 06:56:00;;;;;;;8.07;1.60;;;7.00;99.90;;;;;;4767354;30;20131;-88
2022/01/22 06:58:25;;;;;;;6.20;1.65;;;7.00;99.90;;;;;;4754651;30;20052;-88
2022/01/22 07:00:51;;;;;;;5.72;1.30;;;6.90;99.90;;;;;;4767540;30;20487;-88
2022/01/22 07:03:17;;;;;;;4.57;1.13;;;7.00;99.90;;;;;;4738238;30;20055;-87
2022/01/22 07:05:42;;;;;;;10.30;1.38;;;6.80;99.90;;;;;;4767335;30;20047;-87
2022/01/22 07:08:08;;;;;;;8.35;1.20;;;6.90;99.90;;;;;;4767852;30;20064;-88
2022/01/22 07:10:34;;;;;;;5.90;1.55;;;6.80;99.90;;;;;;4767368;30;20056;-88
2022/01/22 07:12:59;;;;;;;5.35;1.90;;;6.80;99.90;;;;;;4753051;30;20047;-85
2022/01/22 07:15:25;;;;;;;6.20;1.33;;;6.80;99.90;;;;;;4767825;30;20099;-84
2022/01/22 07:17:51;;;;;;;8.98;1.45;;;6.90;99.90;;;;;;4769328;30;20545;-86
2022/01/22 07:20:28;;;;;;;5.03;1.30;;;6.80;99.90;;;;;;4770943;30;20059;-86
2022/01/22 07:23:01;;;;;;;3.83;1.35;;;6.90;99.90;;;;;;4785285;30;20082;-86
2022/01/22 07:25:28;;;;;;;16.60;2.00;;;6.80;99.90;;;;;;4770352;30;20137;-86
2022/01/22 07:27:53;;;;;;;3.63;1.27;;;6.80;99.90;;;;;;4756159;30;20070;-85
2022/01/22 07:30:19;;;;;;;5.15;1.20;;;6.80;99.90;;;;;;4771110;30;20055;-87
2022/01/22 07:32:45;;;;;;;3.83;0.98;;;6.80;99.90;;;;;;4770282;30;20044;-85
2022/01/22 07:35:12;;;;;;;3.45;1.20;;;6.80;99.90;;;;;;4770471;30;20050;-86
2022/01/22 07:37:38;;;;;;;4.13;1.17;;;6.70;99.90;;;;;;4755229;30;20065;-85
2022/01/22 07:40:08;;;;;;;5.05;1.30;;;6.70;99.90;;;;;;4785327;30;20051;-86
2022/01/22 07:42:33;;;;;;;10.03;3.53;;;6.70;99.90;;;;;;4769570;30;20499;-86
2022/01/22 07:45:07;;;;;;;5.18;1.50;;;6.70;99.90;;;;;;4770514;30;20309;-85
2022/01/22 07:47:52;;;;;;;15.32;2.50;;;6.80;99.90;;;;;;4755592;30;20063;-86
2022/01/22 07:50:17;;;;;;;7.13;1.70;;;6.70;99.90;;;;;;4769486;30;20427;-87
2022/01/22 07:52:43;;;;;;;7.22;2.17;;;6.70;99.90;;;;;;4755393;30;20040;-86
2022/01/22 07:55:09;;;;;;;7.80;1.67;;;6.80;99.90;;;;;;4740825;30;20116;-86
2022/01/22 07:57:34;;;;;;;6.35;1.30;;;6.80;99.90;;;;;;4769811;30;20058;-86
2022/01/22 08:00:00;;;;;;;6.82;1.27;;;6.80;99.90;;;;;;4770371;30;20059;-86
2022/01/22 08:02:25;;;;;;;6.53;1.27;;;6.70;99.90;;;;;;4770313;30;20126;-85
2022/01/22 08:04:51;;;;;;;8.60;1.42;;;6.80;99.90;;;;;;4770155;30;20485;-86
2022/01/22 08:07:17;;;;;;;15.73;1.92;;;6.70;99.90;;;;;;4770146;30;20066;-87
2022/01/22 08:09:58;;;;;;;4.72;1.42;;;6.80;99.90;;;;;;4754997;30;20058;-86
2022/01/22 08:12:23;;;;;;;;;;;6.80;99.90;;;;;;4770329;30;20511;-86
2022/01/22 08:14:49;;;;;;;7.70;1.40;;;6.80;99.90;;;;;;4769672;30;19976;-85
2022/01/22 08:17:14;;;;;;;5.18;1.00;;;6.80;99.90;;;;;;4770223;30;20060;-86
2022/01/22 08:19:40;;;;;;;7.10;1.33;;;6.80;99.90;;;;;;4770021;30;20044;-89
2022/01/22 08:22:06;;;;;;;4.57;1.50;;;6.80;99.90;;;;;;4770023;30;20051;-86
2022/01/22 08:24:31;;;;;;;8.23;1.52;;;6.80;99.90;;;;;;4770238;30;20062;-85
2022/01/22 08:29:53;;;;;;;4.38;1.23;;;6.80;99.90;;;;;;4783014;29;20062;-86
2022/01/22 08:37:47;;;;;;;8.68;1.45;;;6.90;99.90;;;;;;4768948;30;20109;-88
2022/01/22 08:40:12;;;;;;;7.75;1.50;;;6.90;99.90;;;;;;4770408;30;20051;-89
2022/01/22 08:42:38;;;;;;;9.80;1.70;;;6.90;99.90;;;;;;4768474;30;20454;-87
2022/01/22 08:45:05;;;;;;;9.18;2.25;;;6.90;99.90;;;;;;4769248;30;20142;-86
2022/01/22 08:47:30;;;;;;;6.65;1.50;;;7.00;99.90;;;;;;4770358;30;20055;-88
2022/01/22 08:49:56;;;;;;;7.47;1.92;;;6.90;99.90;;;;;;4768555;30;20066;-87
2022/01/22 08:52:26;;;;;;;10.40;1.85;;;7.10;99.90;;;;;;4754844;30;20099;-87
2022/01/22 08:54:52;;;;;;;13.13;1.90;;;7.00;99.90;;;;;;4769332;30;20440;-87
2022/01/22 08:57:18;;;;;;;12.55;2.00;;;7.10;99.90;;;;;;4769683;30;20050;-87
2022/01/22 08:59:44;;;;;;;10.38;1.90;;;7.10;99.90;;;;;;4783540;30;20043;-89
2022/01/22 09:02:10;;;;;;;12.18;1.80;;;7.00;99.90;;;;;;4769098;30;20043;-88
2022/01/22 09:04:55;;;;;;;12.35;1.88;;;7.10;99.90;;;;;;4768771;30;20562;-88
2022/01/22 09:07:21;;;;;;;13.05;2.63;;;7.10;99.90;;;;;;4770115;30;20063;-88
2022/01/22 09:09:48;;;;;;;11.77;1.95;;;7.10;99.90;;;;;;4768852;30;20057;-88
2022/01/22 09:12:14;;;;;;;10.80;1.92;;;7.10;99.90;;;;;;4768972;30;20052;-89
2022/01/22 09:14:41;;;;;;;8.52;1.98;;;7.10;99.90;;;;;;4768676;30;20109;-88
2022/01/22 09:17:07;;;;;;;15.00;2.13;;;7.20;99.90;;;;;;4769352;30;20055;-89
2022/01/22 09:19:34;;;;;;;15.10;2.65;;;7.20;99.90;;;;;;4769256;30;20047;-88
2022/01/22 09:22:04;;;;;;;12.52;2.05;;;7.20;99.90;;;;;;4768861;30;20139;-89
2022/01/22 09:24:29;;;;;;;8.02;1.80;;;7.20;99.90;;;;;;4754514;30;20058;-90
2022/01/22 09:26:58;;;;;;;15.70;1.98;;;7.30;99.90;;;;;;4768770;30;20134;-89
2022/01/22 09:29:24;;;;;;;10.20;1.95;;;7.40;99.90;;;;;;4769185;30;20063;-89
2022/01/22 09:31:50;;;;;;;9.85;2.20;;;7.30;99.90;;;;;;4753950;30;20043;-87
2022/01/22 09:34:15;;;;;;;16.50;2.30;;;7.20;99.90;;;;;;4769137;30;20087;-87
2022/01/22 09:36:41;;;;;;;14.30;2.03;;;7.30;99.90;;;;;;4768341;30;20112;-87
2022/01/22 09:39:07;;;;;;;12.07;2.65;;;7.30;99.90;;;;;;4739512;30;20070;-87
2022/01/22 09:41:33;;;;;;;14.48;2.78;;;7.30;99.90;;;;;;4769609;30;20598;-87
2022/01/22 09:43:58;;;;;;;14.00;2.20;;;7.30;99.90;;;;;;4768450;30;20051;-86
2022/01/22 09:46:25;;;;;;;11.15;2.28;;;7.40;99.90;;;;;;4768860;30;20060;-88
2022/01/22 09:48:51;;;;;;;11.77;2.25;;;7.30;99.90;;;;;;4768200;30;20567;-86
2022/01/22 09:51:17;;;;;;;9.68;2.20;;;7.30;99.90;;;;;;4769373;30;20146;-87
2022/01/22 09:53:43;;;;;;;12.75;2.85;;;7.30;99.90;;;;;;4783017;30;20190;-86
2022/01/22 09:56:08;;;;;;;12.82;2.47;;;7.50;99.90;;;;;;4768674;30;20087;-87
2022/01/22 09:58:34;;;;;;;12.80;2.55;;;7.40;99.90;;;;;;4769823;30;20087;-87
2022/01/22 10:01:31;;;;;;;10.73;2.10;;;7.40;99.90;;;;;;4768339;30;20056;-86
2022/01/22 10:03:59;;;;;;;11.00;2.53;;;7.50;99.90;;;;;;4768286;30;20063;-87
2022/01/22 10:06:27;;;;;;;14.70;2.20;;;7.50;99.90;;;;;;4768686;30;20079;-87
2022/01/22 10:09:06;;;;;;;13.55;2.72;;;7.40;99.90;;;;;;4768352;30;20411;-87
2022/01/22 10:11:32;;;;;;;13.18;2.30;;;7.50;99.90;;;;;;4783330;30;20059;-87
2022/01/22 10:13:59;;;;;;;12.15;2.83;;;7.50;99.90;;;;;;4768158;30;20472;-89
2022/01/22 10:16:36;;;;;;;12.38;2.50;;;7.60;99.90;;;;;;4753893;30;20051;-87
2022/01/22 10:19:20;;;;;;;10.20;2.55;;;7.60;99.90;;;;;;4768098;30;20073;-87
2022/01/22 10:21:57;;;;;;;10.95;2.70;;;7.60;99.90;;;;;;4768173;30;20063;-88
2022/01/22 10:24:45;;;;;;;10.55;2.20;;;7.60;99.90;;;;;;4753902;30;20118;-88
2022/01/22 10:27:25;;;;;;;11.82;2.17;;;7.60;99.90;;;;;;4768591;30;20052;-87
2022/01/22 10:30:02;;;;;;;13.98;2.60;;;7.60;99.90;;;;;;4768071;30;20143;-86
2022/01/22 10:32:52;;;;;;;15.95;2.63;;;7.70;99.90;;;;;;4782804;30;20411;-87
2022/01/22 10:35:25;;;;;;;9.43;2.60;;;7.70;99.90;;;;;;4769085;30;20055;-87
2022/01/22 10:37:55;;;;;;;12.00;2.33;;;7.60;99.90;;;;;;4782215;30;20122;-85
2022/01/22 10:40:34;;;;;;;12.18;2.63;;;7.60;99.90;;;;;;4783236;30;20528;-87
2022/01/22 10:43:16;;;;;;;11.43;2.20;;;7.70;99.90;;;;;;4769182;30;20446;-86
2022/01/22 10:45:41;;;;;;;8.25;2.70;;;7.70;99.90;;;;;;4768504;30;20059;-87
2022/01/22 10:48:22;;;;;;;14.32;3.13;;;7.70;99.90;;;;;;4769129;30;20059;-87
2022/01/22 10:51:01;;;;;;;12.95;3.10;;;7.80;99.90;;;;;;4767673;30;20063;-90
2022/01/22 10:53:44;;;;;;;13.43;2.97;;;7.80;99.90;;;;;;4785071;30;20560;-88
2022/01/22 10:56:41;;;;;;;8.60;3.05;;;7.90;99.90;;;;;;4756162;30;20505;-89
2022/01/22 10:59:11;;;;;;;13.32;2.83;;;7.80;99.90;;;;;;4768993;30;20067;-88
2022/01/22 11:01:53;;;;;;;9.60;2.90;;;7.80;99.90;;;;;;4771125;30;20525;-88
2022/01/22 11:04:25;;;;;;;14.85;2.42;;;7.80;99.90;;;;;;4771696;30;20095;-88
2022/01/22 11:06:55;;;;;;;16.23;3.15;;;7.80;99.90;;;;;;4772642;30;20062;-88
2022/01/22 11:09:22;;;;;;;10.97;2.13;;;7.80;99.90;;;;;;4785974;30;20056;-89
2022/01/22 11:11:48;;;;;;;8.35;2.33;;;7.80;99.90;;;;;;4771230;30;20052;-88
2022/01/22 11:14:14;;;;;;;16.58;2.70;;;7.70;99.90;;;;;;4771017;30;20059;-88
2022/01/22 11:16:41;;;;;;;11.02;3.28;;;7.80;99.90;;;;;;4771137;30;20406;-88
2022/01/22 11:19:08;;;;;;;22.95;10.10;;;7.80;99.90;;;;;;4771953;30;20134;-89
2022/01/22 11:21:34;;;;;;;23.38;11.25;;;7.80;99.90;;;;;;4741216;30;20059;-88
2022/01/22 11:23:59;;;;;;;14.00;6.32;;;7.90;99.90;;;;;;4769656;30;20121;-89
2022/01/22 11:26:25;;;;;;;10.55;5.20;;;7.90;99.90;;;;;;4756270;30;20047;-88
2022/01/22 11:28:52;;;;;;;7.40;2.60;;;7.90;99.90;;;;;;4771868;30;20434;-88
2022/01/22 11:31:17;;;;;;;11.15;2.72;;;7.90;99.90;;;;;;4770776;30;20096;-88
2022/01/22 11:33:44;;;;;;;12.52;3.05;;;7.90;99.90;;;;;;4756344;30;20055;-87
2022/01/22 11:36:17;;;;;;;12.15;2.65;;;7.90;99.90;;;;;;4755527;30;20056;-89
2022/01/22 11:38:52;;;;;;;13.10;3.38;;;7.90;99.90;;;;;;4770617;30;20048;-88
2022/01/22 11:41:21;;;;;;;10.35;2.80;;;7.90;99.90;;;;;;4770316;30;20130;-88
2022/01/22 11:44:08;;;;;;;17.75;2.85;;;7.90;99.90;;;;;;4772023;30;20104;-88
2022/01/22 11:46:41;;;;;;;9.40;2.92;;;7.90;99.90;;;;;;4771966;30;20109;-87
2022/01/22 11:49:14;;;;;;;9.00;2.63;;;7.90;99.90;;;;;;4785003;30;20098;-88
2022/01/22 11:51:40;;;;;;;9.20;2.72;;;7.90;99.90;;;;;;4770199;30;20476;-88
2022/01/22 11:54:06;;;;;;;11.10;2.92;;;7.90;99.90;;;;;;4770429;30;20129;-88
2022/01/22 11:56:53;;;;;;;12.73;3.10;;;7.80;99.90;;;;;;4770321;30;20498;-89
2022/01/22 11:59:29;;;;;;;13.57;3.30;;;7.90;99.90;;;;;;4770381;30;20106;-88
2022/01/22 12:01:56;;;;;;;14.77;3.70;;;7.90;99.90;;;;;;4770687;30;20055;-87
2022/01/22 12:04:28;;;;;;;12.52;3.40;;;7.80;99.90;;;;;;4784448;29;20116;-88
2022/01/22 12:07:00;;;;;;;14.65;3.33;;;7.80;99.90;;;;;;4770376;30;20567;-88
2022/01/22 12:09:29;;;;;;;15.30;4.38;;;7.80;99.90;;;;;;4770637;30;20399;-89
2022/01/22 12:14:50;;;;;;;14.00;3.90;;;7.80;99.90;;;;;;4770339;30;20058;-89
2022/01/22 12:17:25;;;;;;;18.55;3.88;;;7.80;99.90;;;;;;4770054;30;20407;-89
2022/01/22 12:22:34;;;;;;;10.98;2.95;;;7.90;99.90;;;;;;4769756;30;20506;-88
2022/01/22 12:25:23;;;;;;;9.60;3.20;;;7.80;99.90;;;;;;4769871;30;20078;-89
2022/01/22 12:27:50;;;;;;;11.02;3.05;;;7.90;99.90;;;;;;4792495;29;20063;-89
2022/01/22 12:30:17;;;;;;;13.65;3.10;;;7.80;99.90;;;;;;4769737;30;20056;-89
2022/01/22 12:32:51;;;;;;;14.10;3.20;;;7.80;99.90;;;;;;4784935;30;20455;-89
2022/01/22 12:35:19;;;;;;;8.57;3.20;;;7.90;99.90;;;;;;4783604;30;20464;-88
2022/01/22 12:37:49;;;;;;;17.83;3.10;;;7.90;99.90;;;;;;4755057;30;20055;-88
2022/01/22 12:40:27;;;;;;;9.90;2.75;;;7.90;99.90;;;;;;4755041;30;20138;-88
2022/01/22 12:43:20;;;;;;;15.25;3.25;;;7.90;99.90;;;;;;4755621;30;20058;-88
2022/01/22 12:45:43;;;;;;;8.75;2.20;;;7.90;99.90;;;;;;4769685;30;20067;-90
2022/01/22 12:48:12;;;;;;;11.63;2.78;;;7.90;99.90;;;;;;4754903;30;20097;-88
2022/01/22 12:50:37;;;;;;;12.48;2.40;;;8.00;99.90;;;;;;4769374;30;20098;-88
2022/01/22 12:53:13;;;;;;;15.45;2.72;;;8.00;99.90;;;;;;4770684;30;20507;-88
2022/01/22 12:56:02;;;;;;;14.43;2.65;;;8.00;99.90;;;;;;4754685;30;20051;-88
2022/01/22 12:58:30;;;;;;;11.93;2.85;;;7.90;99.90;;;;;;4756938;30;20066;-83
2022/01/22 13:01:21;;;;;;;12.20;2.20;;;7.90;99.90;;;;;;4769769;30;20055;-87
2022/01/22 13:03:49;;;;;;;11.10;2.67;;;7.90;99.90;;;;;;4769520;30;20122;-87
2022/01/22 13:06:17;;;;;;;14.77;2.58;;;7.90;99.90;;;;;;4754200;30;20063;-86
2022/01/22 13:08:43;;;;;;;6.72;1.92;;;7.90;99.90;;;;;;4769015;30;20503;-89
2022/01/22 13:11:10;;;;;;;8.90;2.05;;;7.90;99.90;;;;;;4783847;30;20055;-86
2022/01/22 13:13:39;;;;;;;9.68;2.38;;;7.80;99.90;;;;;;4768897;30;20063;-87
2022/01/22 13:16:05;;;;;;;11.18;2.45;;;7.90;99.90;;;;;;4753559;30;20052;-85
2022/01/22 13:18:58;;;;;;;11.52;2.22;;;7.90;99.90;;;;;;4768947;30;20086;-85
2022/01/22 13:21:25;;;;;;;11.55;2.22;;;7.90;99.90;;;;;;4783529;30;20055;-84
2022/01/22 13:24:09;;;;;;;14.65;2.35;;;7.80;99.90;;;;;;4769290;30;20055;-84
2022/01/22 13:26:58;;;;;;;8.40;2.10;;;7.90;99.90;;;;;;4754296;30;20454;-85
2022/01/22 13:29:25;;;;;;;16.10;2.38;;;7.80;99.90;;;;;;4754643;30;20131;-85
2022/01/22 13:32:16;;;;;;;15.52;2.85;;;7.80;99.90;;;;;;4784014;30;20060;-84
2022/01/22 13:35:19;;;;;;;10.82;2.80;;;7.90;99.90;;;;;;4740276;30;20112;-84
2022/01/22 13:45:02;;;;;;;10.48;2.00;;;7.90;99.90;;;;;;4769485;30;20095;-85
2022/01/22 13:49:19;;;;;;;6.47;1.42;;;7.80;99.90;;;;;;4755873;30;20064;-84
2022/01/22 13:51:45;;;;;;;10.57;1.50;;;7.80;99.90;;;;;;4739348;30;20063;-82
2022/01/22 13:54:11;;;;;;;7.20;1.55;;;7.80;99.90;;;;;;4754184;30;20462;-83
2022/01/22 13:56:50;;;;;;;5.78;1.20;;;7.80;99.90;;;;;;4753445;30;20056;-84
2022/01/22 13:59:20;;;;;;;3.90;1.08;;;7.80;99.90;;;;;;4768112;30;20117;-87
2022/01/22 14:02:05;;;;;;;8.32;1.40;;;7.80;99.90;;;;;;4783043;30;20051;-88
2022/01/22 14:04:40;;;;;;;6.57;1.40;;;7.70;99.90;;;;;;4767694;30;20495;-86
2022/01/22 14:07:30;;;;;;;8.07;1.70;;;7.80;99.90;;;;;;4782975;30;20125;-89
2022/01/22 14:10:04;;;;;;;7.53;1.48;;;7.80;99.90;;;;;;4768863;30;20077;-89
2022/01/22 14:12:37;;;;;;;9.52;1.92;;;7.70;99.90;;;;;;4770889;30;20580;-89
2022/01/22 14:15:04;;;;;;;8.88;1.70;;;7.80;99.90;;;;;;4756471;30;20514;-89
2022/01/22 14:17:38;;;;;;;7.25;1.50;;;7.70;99.90;;;;;;4770190;30;20056;-89
2022/01/22 14:20:09;;;;;;;6.63;1.50;;;7.70;99.90;;;;;;4768734;30;20104;-89
2022/01/22 14:22:51;;;;;;;8.98;0.88;;;7.70;99.90;;;;;;4768318;30;20098;-89
2022/01/22 14:25:17;;;;;;;8.40;1.42;;;7.70;99.90;;;;;;4768527;30;20063;-89
2022/01/22 14:27:42;;;;;;;10.75;1.70;;;7.70;99.90;;;;;;4770145;30;20056;-89
2022/01/22 14:30:08;;;;;;;6.63;1.25;;;7.70;99.90;;;;;;4771332;30;20050;-89
2022/01/22 14:32:35;;;;;;;5.68;1.13;;;7.60;99.90;;;;;;4771893;30;20142;-89
2022/01/22 14:35:13;;;;;;;5.95;1.23;;;7.60;99.90;;;;;;4772131;30;20048;-88
2022/01/22 14:37:38;;;;;;;7.82;1.55;;;7.70;99.90;;;;;;4756872;30;20079;-89
2022/01/22 14:45:21;;;;;;;11.13;2.28;;;7.60;99.90;;;;;;4771592;30;20519;-88
2022/01/22 14:47:54;;;;;;;8.38;1.73;;;7.60;99.90;;;;;;4771989;30;20063;-89
2022/01/22 14:50:20;;;;;;;5.47;1.20;;;7.70;99.90;;;;;;4756588;30;20060;-89
2022/01/22 14:52:47;;;;;;;9.55;1.55;;;7.60;99.90;;;;;;4786097;30;20166;-89
2022/01/22 14:55:13;;;;;;;10.60;1.95;;;7.70;99.90;;;;;;4757047;30;20094;-89
2022/01/22 14:57:40;;;;;;;5.63;1.30;;;7.70;99.90;;;;;;4771322;30;20071;-89
2022/01/22 15:00:10;;;;;;;8.82;1.48;;;7.60;99.90;;;;;;4756844;30;20087;-89
2022/01/22 15:02:36;;;;;;;7.18;1.33;;;7.60;99.90;;;;;;4771293;30;20060;-89